Terminal Aerodrome Forecast
Issued by NWS

Home | Current Version | Previous Version | Text Only | Print | Product List | Glossary On
Versions: 1 2 3 4 5 6 7 8 9 10 11 12 13 14 15 16 17
529
FTUS46 KSTO 241302 AAA
TAFRDD
TAF AMD
KRDD 241302Z 2413/2512 16010KT 5SM -RA OVC040
     FM241600 18016G26KT 5SM -RA OVC025
     FM242200 18010KT 6SM -SHRA OVC035=

USA.gov is the U.S. government's official web portal to all federal, state and local government web resources and services.